Time;durP1;ratioP1;P1;durP2;ratioP2;P2;SDS_P1;SDS_P2;PMS_P1;PMS_P2;Temp;Humidity;BMP_temperature;BMP_pressure;BME280_temperature;BME280_humidity;BME280_pressure;Samples;Min_cycle;Max_cycle;Signal;HPM_P1;HPM_P2
2023/05/30 00:01:19;;;;;;;17.77;3.00;;;14.00;85.90;;;;;;5051407;28;20029;-67
2023/05/30 00:03:46;;;;;;;20.73;3.00;;;14.10;85.00;;;;;;5051325;28;20033;-66
2023/05/30 00:06:16;;;;;;;18.63;3.05;;;14.10;86.30;;;;;;5050229;28;20025;-67
2023/05/30 00:08:42;;;;;;;17.77;3.47;;;14.00;86.80;;;;;;5051239;28;20037;-66
2023/05/30 00:11:08;;;;;;;14.13;2.85;;;14.00;87.10;;;;;;5051500;28;20033;-66
2023/05/30 00:13:34;;;;;;;23.73;3.20;;;13.80;88.40;;;;;;5051129;28;20045;-67
2023/05/30 00:16:01;;;;;;;15.55;3.13;;;13.80;88.90;;;;;;5051123;28;20479;-67
2023/05/30 00:18:34;;;;;;;16.33;2.65;;;13.80;89.20;;;;;;5051172;28;20346;-66
2023/05/30 00:21:04;;;;;;;26.95;3.85;;;13.80;89.10;;;;;;5051451;28;20052;-67
2023/05/30 00:23:31;;;;;;;21.77;3.35;;;13.90;89.80;;;;;;5050915;28;20463;-67
2023/05/30 00:25:57;;;;;;;20.15;3.22;;;13.70;90.30;;;;;;5049882;28;20463;-67
2023/05/30 00:28:23;;;;;;;23.33;4.05;;;13.80;90.20;;;;;;5049632;28;20455;-67
2023/05/30 00:30:49;;;;;;;24.58;3.17;;;13.80;90.60;;;;;;5050876;28;20048;-67
2023/05/30 00:33:15;;;;;;;20.88;3.47;;;13.70;90.50;;;;;;5051103;28;20036;-66
2023/05/30 00:35:41;;;;;;;19.25;3.63;;;13.70;90.80;;;;;;5050917;28;20463;-67
2023/05/30 00:38:06;;;;;;;21.98;3.40;;;13.70;91.00;;;;;;5051028;28;20595;-67
2023/05/30 00:40:32;;;;;;;31.38;3.85;;;13.70;91.10;;;;;;5049750;28;20022;-68
2023/05/30 00:42:58;;;;;;;17.95;3.03;;;13.70;90.90;;;;;;5049698;28;20490;-67
2023/05/30 00:45:23;;;;;;;25.88;3.95;;;13.50;91.60;;;;;;5050767;28;20454;-67
2023/05/30 00:47:51;;;;;;;20.33;3.72;;;13.50;91.70;;;;;;5051455;28;20021;-68
2023/05/30 00:50:18;;;;;;;25.80;3.42;;;13.40;91.90;;;;;;5050614;28;20466;-67
2023/05/30 00:52:46;;;;;;;29.67;4.15;;;13.40;92.10;;;;;;5050502;28;20593;-68
2023/05/30 00:55:12;;;;;;;22.73;3.83;;;13.40;92.10;;;;;;5050509;28;20454;-67
2023/05/30 00:57:38;;;;;;;22.20;3.70;;;13.40;92.40;;;;;;5050737;28;20025;-67
2023/05/30 01:00:04;;;;;;;19.15;3.47;;;13.60;92.20;;;;;;5050936;28;20036;-68
2023/05/30 01:02:33;;;;;;;19.98;3.97;;;13.50;92.60;;;;;;5050742;28;20361;-67
2023/05/30 01:04:59;;;;;;;22.13;4.18;;;13.50;92.50;;;;;;5050635;28;20418;-69
2023/05/30 01:07:25;;;;;;;19.98;3.35;;;13.40;92.70;;;;;;5050344;28;20037;-68
2023/05/30 01:09:52;;;;;;;26.55;3.63;;;13.40;93.00;;;;;;5050199;28;20032;-68
2023/05/30 01:12:41;;;;;;;24.92;4.10;;;13.40;93.00;;;;;;5050594;28;20021;-67
2023/05/30 01:15:23;;;;;;;14.40;3.15;;;13.40;93.10;;;;;;5050362;28;20080;-67
2023/05/30 01:18:19;;;;;;;16.65;3.53;;;13.40;93.20;;;;;;5050335;28;20025;-68
2023/05/30 01:20:50;;;;;;;17.92;3.47;;;13.40;93.10;;;;;;5050349;28;20102;-67
2023/05/30 01:23:36;;;;;;;25.02;3.40;;;13.30;93.60;;;;;;5049219;28;20033;-67
2023/05/30 01:26:05;;;;;;;18.85;2.75;;;13.20;93.80;;;;;;5050120;28;20075;-68
2023/05/30 01:28:33;;;;;;;23.60;3.00;;;13.20;93.90;;;;;;5049091;28;20048;-67
2023/05/30 01:31:00;;;;;;;23.58;3.72;;;13.30;93.90;;;;;;5050074;28;20047;-67
2023/05/30 01:33:27;;;;;;;22.67;3.30;;;13.30;94.00;;;;;;5049057;28;20094;-68
2023/05/30 01:35:53;;;;;;;17.88;2.97;;;13.20;94.20;;;;;;5041164;28;20036;-68
2023/05/30 01:38:19;;;;;;;16.95;3.47;;;13.00;94.60;;;;;;5030496;28;20041;-67
2023/05/30 01:40:53;;;;;;;18.75;3.67;;;13.00;94.80;;;;;;5030035;28;20509;-68
2023/05/30 01:43:38;;;;;;;20.10;3.42;;;13.20;94.50;;;;;;5030197;28;20033;-67
2023/05/30 01:46:32;;;;;;;25.25;3.85;;;13.20;94.40;;;;;;5029040;28;20025;-67
2023/05/30 01:49:27;;;;;;;29.70;3.53;;;13.10;94.90;;;;;;5030184;28;20030;-68
2023/05/30 01:51:59;;;;;;;30.73;3.60;;;13.10;94.80;;;;;;5029932;28;20032;-67
2023/05/30 01:54:27;;;;;;;21.77;3.63;;;13.10;95.00;;;;;;5030473;28;20014;-68
2023/05/30 01:57:01;;;;;;;31.15;4.20;;;13.20;94.90;;;;;;5030342;28;20447;-68
2023/05/30 01:59:27;;;;;;;20.85;3.38;;;13.20;95.00;;;;;;5029986;28;20034;-68
2023/05/30 02:01:56;;;;;;;19.67;3.70;;;13.10;95.00;;;;;;5028843;28;20040;-68
2023/05/30 02:04:24;;;;;;;18.88;3.10;;;13.00;95.20;;;;;;5030033;28;20476;-68
2023/05/30 02:06:50;;;;;;;21.33;3.70;;;12.90;95.50;;;;;;5030009;28;20033;-65
2023/05/30 02:09:16;;;;;;;24.23;4.35;;;12.90;95.70;;;;;;5030353;28;20029;-67
2023/05/30 02:11:41;;;;;;;22.67;4.53;;;13.00;95.80;;;;;;5030178;28;20034;-69
2023/05/30 02:14:07;;;;;;;24.33;5.00;;;12.80;95.70;;;;;;5029881;28;20045;-68
2023/05/30 02:16:33;;;;;;;25.25;4.22;;;12.80;95.90;;;;;;5029890;28;20033;-68
2023/05/30 02:19:00;;;;;;;23.60;3.60;;;13.00;95.60;;;;;;5029908;28;20460;-68
2023/05/30 02:21:25;;;;;;;21.90;3.65;;;13.00;95.80;;;;;;5029110;28;20430;-69
2023/05/30 02:23:51;;;;;;;27.20;3.67;;;12.80;96.00;;;;;;5030308;28;20026;-68
2023/05/30 02:26:17;;;;;;;32.83;4.00;;;12.90;96.00;;;;;;5029734;28;20109;-68
2023/05/30 02:28:42;;;;;;;18.95;3.78;;;12.90;96.20;;;;;;5029487;28;20073;-68
2023/05/30 02:31:08;;;;;;;21.30;3.40;;;12.80;96.10;;;;;;5032124;28;20470;-69
2023/05/30 02:33:33;;;;;;;20.98;3.72;;;12.90;96.20;;;;;;5033077;28;20041;-67
2023/05/30 02:35:59;;;;;;;21.30;4.43;;;12.80;96.30;;;;;;5033533;28;20467;-68
2023/05/30 02:38:25;;;;;;;28.92;4.07;;;12.80;96.30;;;;;;5033296;28;20083;-68
2023/05/30 02:40:51;;;;;;;21.15;4.00;;;12.80;96.30;;;;;;5032060;28;20036;-69
2023/05/30 02:43:16;;;;;;;19.80;3.80;;;12.70;96.50;;;;;;5033328;28;20463;-69
2023/05/30 02:45:42;;;;;;;26.67;3.63;;;12.70;96.70;;;;;;5033316;28;20109;-69
2023/05/30 02:48:08;;;;;;;18.45;3.63;;;12.70;96.70;;;;;;5039227;28;20351;-68
2023/05/30 02:50:34;;;;;;;18.88;3.75;;;12.70;96.60;;;;;;5052633;28;20434;-69
2023/05/30 02:53:01;;;;;;;16.58;3.20;;;12.70;96.70;;;;;;5052585;28;20057;-68
2023/05/30 02:55:26;;;;;;;26.73;5.15;;;12.80;96.50;;;;;;5052878;28;20060;-68
2023/05/30 02:57:52;;;;;;;22.17;4.55;;;12.90;96.00;;;;;;5052780;28;20044;-68
2023/05/30 03:00:20;;;;;;;20.80;3.92;;;12.70;96.70;;;;;;5053193;28;20509;-68
2023/05/30 03:02:46;;;;;;;20.13;3.60;;;12.50;97.20;;;;;;5052691;28;20069;-68
2023/05/30 03:05:12;;;;;;;30.88;4.80;;;12.60;97.30;;;;;;5052391;28;20064;-68
2023/05/30 03:07:38;;;;;;;26.70;4.40;;;12.60;97.20;;;;;;5052568;28;20086;-68
2023/05/30 03:10:04;;;;;;;26.70;4.43;;;12.60;97.20;;;;;;5052378;28;20037;-69
2023/05/30 03:12:30;;;;;;;17.92;3.65;;;12.70;97.20;;;;;;5052324;28;20064;-69
2023/05/30 03:14:56;;;;;;;24.15;5.05;;;12.70;97.00;;;;;;5052798;28;20056;-68
2023/05/30 03:17:22;;;;;;;15.00;3.53;;;12.80;96.90;;;;;;5052545;28;20025;-68
2023/05/30 03:19:48;;;;;;;20.42;3.53;;;12.70;97.10;;;;;;5052208;28;20067;-69
2023/05/30 03:22:14;;;;;;;26.45;3.78;;;12.70;97.10;;;;;;5052281;28;20383;-68
2023/05/30 03:24:39;;;;;;;18.75;3.63;;;12.60;97.30;;;;;;5051925;28;20595;-69
2023/05/30 03:27:07;;;;;;;26.70;3.67;;;12.60;97.30;;;;;;5052277;28;20033;-69
2023/05/30 03:29:33;;;;;;;19.20;4.20;;;12.60;97.40;;;;;;5051683;28;20057;-69
2023/05/30 03:31:59;;;;;;;19.20;4.20;;;12.70;97.20;;;;;;5052054;28;20041;-67
2023/05/30 03:34:25;;;;;;;24.05;3.53;;;12.60;97.40;;;;;;5051904;28;20040;-69
2023/05/30 03:36:52;;;;;;;25.58;4.88;;;12.70;97.30;;;;;;5050527;28;20374;-67
2023/05/30 03:39:21;;;;;;;25.25;4.00;;;12.60;97.40;;;;;;5052316;28;20034;-69
2023/05/30 03:41:47;;;;;;;18.55;3.60;;;12.70;97.30;;;;;;5051053;28;20106;-68
2023/05/30 03:44:12;;;;;;;27.60;4.05;;;12.40;97.80;;;;;;5051819;28;20024;-67
2023/05/30 03:46:38;;;;;;;21.80;4.40;;;12.60;97.60;;;;;;5051658;28;20063;-68
2023/05/30 03:49:04;;;;;;;22.92;4.07;;;12.70;97.50;;;;;;5051728;28;20048;-68
2023/05/30 03:51:29;;;;;;;19.83;3.60;;;12.60;97.50;;;;;;5051923;28;20024;-68
2023/05/30 03:53:55;;;;;;;21.92;3.63;;;12.60;97.60;;;;;;5052191;28;20356;-68
2023/05/30 03:56:21;;;;;;;19.83;3.85;;;12.40;98.10;;;;;;5051745;28;20097;-68
2023/05/30 03:58:46;;;;;;;27.88;5.85;;;12.50;98.00;;;;;;5051624;28;20458;-67
2023/05/30 04:01:13;;;;;;;27.42;4.35;;;12.60;97.60;;;;;;5050502;28;20036;-68
2023/05/30 04:03:38;;;;;;;22.10;3.58;;;12.60;97.90;;;;;;5051676;28;20100;-68
2023/05/30 04:06:08;;;;;;;36.17;4.95;;;12.60;97.90;;;;;;5050894;28;20510;-68
2023/05/30 04:08:36;;;;;;;18.45;3.75;;;12.60;98.10;;;;;;5051413;28;20423;-68
2023/05/30 04:11:03;;;;;;;24.08;4.70;;;12.50;98.10;;;;;;5051348;28;20080;-69
2023/05/30 04:13:28;;;;;;;14.00;2.95;;;12.70;97.70;;;;;;5051173;28;20530;-67
2023/05/30 04:15:54;;;;;;;18.45;3.40;;;12.80;97.50;;;;;;5051195;28;20123;-69
2023/05/30 04:18:20;;;;;;;24.95;4.40;;;12.70;97.90;;;;;;5050083;28;20091;-68
2023/05/30 04:20:46;;;;;;;18.85;3.60;;;12.50;98.20;;;;;;5051809;28;20025;-68
2023/05/30 04:23:11;;;;;;;13.38;3.35;;;12.80;97.70;;;;;;5051049;28;20108;-68
2023/05/30 04:25:38;;;;;;;27.70;4.30;;;12.80;97.80;;;;;;5051124;28;20025;-68
2023/05/30 04:28:05;;;;;;;20.80;4.15;;;12.80;97.80;;;;;;5050996;28;20449;-68
2023/05/30 04:30:32;;;;;;;19.88;3.55;;;12.90;97.80;;;;;;5050719;28;20139;-69
2023/05/30 04:32:58;;;;;;;14.07;3.15;;;12.80;97.80;;;;;;5051355;28;20040;-67
2023/05/30 04:35:23;;;;;;;25.58;4.55;;;12.90;97.70;;;;;;5050758;28;20033;-68
2023/05/30 04:37:50;;;;;;;18.30;3.40;;;12.90;97.70;;;;;;5050830;28;20033;-69
2023/05/30 04:40:15;;;;;;;19.08;3.97;;;13.00;97.30;;;;;;5050979;28;20040;-69
2023/05/30 04:42:42;;;;;;;14.05;3.13;;;12.80;97.50;;;;;;5050721;28;20109;-68
2023/05/30 04:45:09;;;;;;;18.30;3.28;;;13.00;97.50;;;;;;5051144;28;20033;-69
2023/05/30 04:47:36;;;;;;;21.95;4.05;;;12.90;97.30;;;;;;5050682;28;20058;-68
2023/05/30 04:50:02;;;;;;;25.95;4.15;;;13.00;97.10;;;;;;5050657;28;20029;-68
2023/05/30 04:52:28;;;;;;;19.08;4.30;;;13.10;97.00;;;;;;5050169;28;20179;-68
2023/05/30 04:54:55;;;;;;;18.02;3.42;;;13.10;97.00;;;;;;5050774;28;20029;-69
2023/05/30 04:57:21;;;;;;;21.63;3.95;;;13.20;96.90;;;;;;5050404;28;20024;-67
2023/05/30 04:59:47;;;;;;;20.90;3.83;;;13.10;97.10;;;;;;5051047;28;20029;-69
2023/05/30 05:02:13;;;;;;;20.75;4.68;;;13.10;97.20;;;;;;5050198;28;20033;-69
2023/05/30 05:04:39;;;;;;;23.23;4.47;;;13.10;97.30;;;;;;5050243;28;20029;-69
2023/05/30 05:07:05;;;;;;;17.92;4.53;;;13.00;97.40;;;;;;5049180;28;20033;-68
2023/05/30 05:09:31;;;;;;;18.42;3.17;;;13.00;97.50;;;;;;5050606;28;20036;-67
2023/05/30 05:11:57;;;;;;;21.00;4.22;;;13.10;97.40;;;;;;5050769;28;20451;-68
2023/05/30 05:14:23;;;;;;;21.05;4.95;;;13.10;97.40;;;;;;5050350;28;20048;-69
2023/05/30 05:16:49;;;;;;;20.67;4.38;;;13.10;97.40;;;;;;5049230;28;20043;-68
2023/05/30 05:19:15;;;;;;;14.40;4.60;;;13.20;97.20;;;;;;5050151;28;20044;-68
2023/05/30 05:21:41;;;;;;;21.45;4.38;;;13.10;97.20;;;;;;5050002;28;20025;-68
2023/05/30 05:24:07;;;;;;;22.77;3.97;;;13.20;97.30;;;;;;5050410;28;20338;-68
2023/05/30 05:26:33;;;;;;;19.17;3.80;;;13.50;97.00;;;;;;5050658;28;20072;-68
2023/05/30 05:29:00;;;;;;;19.55;4.65;;;13.60;96.60;;;;;;5049834;28;20077;-66
2023/05/30 05:31:25;;;;;;;16.65;4.05;;;13.70;96.40;;;;;;5050088;28;20044;-68
2023/05/30 05:33:51;;;;;;;18.50;3.92;;;13.70;96.20;;;;;;5049823;28;20033;-67
2023/05/30 05:36:18;;;;;;;22.70;4.63;;;13.90;96.20;;;;;;5049500;28;20371;-68
2023/05/30 05:38:44;;;;;;;15.38;3.42;;;13.80;96.30;;;;;;5049932;28;20053;-68
2023/05/30 05:41:09;;;;;;;15.85;4.25;;;13.80;96.40;;;;;;5049929;28;20509;-68
2023/05/30 05:43:36;;;;;;;18.00;4.40;;;13.90;96.20;;;;;;5049797;28;20033;-68
2023/05/30 05:46:01;;;;;;;13.75;3.88;;;14.00;96.00;;;;;;5048735;28;20069;-68
2023/05/30 05:48:27;;;;;;;21.20;4.20;;;14.10;95.80;;;;;;5049759;28;20049;-68
2023/05/30 05:50:52;;;;;;;18.88;5.18;;;14.20;95.50;;;;;;5050395;28;20419;-68
2023/05/30 05:53:18;;;;;;;22.50;4.25;;;14.30;95.70;;;;;;5049839;28;20029;-67
2023/05/30 05:55:45;;;;;;;15.38;4.00;;;14.40;95.60;;;;;;5050060;28;20033;-67
2023/05/30 05:58:12;;;;;;;28.20;4.50;;;14.30;95.50;;;;;;5049944;28;20057;-67
2023/05/30 06:00:37;;;;;;;12.82;3.58;;;14.50;95.40;;;;;;5049916;28;20417;-68
2023/05/30 06:03:03;;;;;;;18.65;3.70;;;14.50;95.10;;;;;;5050138;28;20124;-71
2023/05/30 06:05:29;;;;;;;13.95;4.15;;;14.30;95.90;;;;;;5049881;28;20029;-70
2023/05/30 06:07:57;;;;;;;18.15;4.53;;;14.20;95.60;;;;;;5053202;28;20412;-70
2023/05/30 06:10:23;;;;;;;21.80;5.57;;;14.40;96.00;;;;;;5040238;28;20061;-69
2023/05/30 06:12:49;;;;;;;43.75;6.55;;;14.60;95.10;;;;;;5033248;28;20451;-70
2023/05/30 06:15:15;;;;;;;19.75;3.65;;;14.80;95.00;;;;;;5034186;28;20025;-69
2023/05/30 06:17:40;;;;;;;17.10;3.78;;;14.80;94.70;;;;;;5033478;28;20126;-69
2023/05/30 06:20:07;;;;;;;16.52;3.70;;;14.90;94.40;;;;;;5033487;28;20462;-70
2023/05/30 06:22:32;;;;;;;20.85;4.93;;;15.10;94.50;;;;;;5033310;28;20065;-68
2023/05/30 06:24:58;;;;;;;20.98;4.22;;;15.20;94.30;;;;;;5033232;28;20060;-70
2023/05/30 06:27:24;;;;;;;18.27;4.10;;;15.30;94.20;;;;;;5033165;28;20117;-70
2023/05/30 06:29:50;;;;;;;14.00;3.30;;;15.30;94.20;;;;;;5033521;28;20375;-71
2023/05/30 06:32:15;;;;;;;18.92;4.40;;;15.30;94.20;;;;;;5033292;28;20403;-68
2023/05/30 06:34:41;;;;;;;21.13;3.95;;;15.20;94.10;;;;;;5033127;28;20029;-70
2023/05/30 06:37:06;;;;;;;21.38;3.58;;;15.30;94.10;;;;;;5033223;28;20444;-71
2023/05/30 06:39:32;;;;;;;22.85;3.90;;;15.40;94.10;;;;;;5032814;28;20025;-70
2023/05/30 06:41:58;;;;;;;20.83;4.82;;;15.50;93.80;;;;;;5033391;28;20352;-72
2023/05/30 06:44:23;;;;;;;21.80;4.55;;;15.60;93.70;;;;;;5033077;28;20060;-70
2023/05/30 06:46:49;;;;;;;21.88;4.15;;;15.80;93.50;;;;;;5032953;28;20108;-71
2023/05/30 06:49:15;;;;;;;16.80;3.65;;;15.80;93.40;;;;;;5031761;28;20513;-70
2023/05/30 06:51:40;;;;;;;24.20;4.28;;;15.80;93.40;;;;;;5032910;28;20037;-67
2023/05/30 06:54:06;;;;;;;16.77;3.65;;;15.40;93.20;;;;;;5032876;28;20044;-68
2023/05/30 06:56:32;;;;;;;31.50;5.72;;;15.30;93.40;;;;;;5032367;28;20432;-68
2023/05/30 06:58:57;;;;;;;15.20;4.05;;;15.20;93.70;;;;;;5032574;28;20491;-69
2023/05/30 07:01:23;;;;;;;20.23;4.50;;;15.10;93.70;;;;;;5032446;28;20108;-70
2023/05/30 07:03:48;;;;;;;22.08;4.55;;;15.00;93.70;;;;;;5032614;28;20195;-70
2023/05/30 07:06:14;;;;;;;13.65;3.15;;;15.00;93.80;;;;;;5032811;28;20087;-70
2023/05/30 07:08:40;;;;;;;16.88;3.75;;;15.00;93.90;;;;;;5032525;28;20033;-69
2023/05/30 07:11:08;;;;;;;15.18;3.97;;;15.10;93.60;;;;;;5032115;28;20043;-71
2023/05/30 07:13:34;;;;;;;13.20;3.25;;;15.20;93.60;;;;;;5032272;28;20095;-68
2023/05/30 07:16:00;;;;;;;17.25;3.65;;;15.20;93.50;;;;;;5032063;28;20411;-70
2023/05/30 07:18:25;;;;;;;22.90;3.60;;;15.40;93.70;;;;;;5030963;28;20035;-70
2023/05/30 07:20:51;;;;;;;19.65;4.38;;;15.70;93.30;;;;;;5032453;28;20123;-69
2023/05/30 07:23:17;;;;;;;21.45;3.50;;;15.90;93.10;;;;;;5031945;28;20026;-69
2023/05/30 07:25:43;;;;;;;15.38;3.75;;;16.10;92.70;;;;;;5031753;28;20037;-68
2023/05/30 07:28:10;;;;;;;29.45;4.20;;;16.30;92.60;;;;;;5030714;28;20411;-67
2023/05/30 07:30:35;;;;;;;15.30;4.13;;;16.40;92.50;;;;;;5031650;28;20124;-68
2023/05/30 07:33:01;;;;;;;22.65;4.35;;;16.60;92.20;;;;;;5031121;28;20120;-68
2023/05/30 07:35:26;;;;;;;15.65;3.92;;;16.60;91.90;;;;;;5031568;28;20033;-69
2023/05/30 07:37:52;;;;;;;20.10;3.42;;;16.60;91.80;;;;;;5031586;28;20026;-68
2023/05/30 07:40:18;;;;;;;16.35;4.32;;;16.50;91.30;;;;;;5031396;28;20091;-68
2023/05/30 07:42:47;;;;;;;15.30;3.53;;;16.30;91.60;;;;;;5031411;28;20097;-68
2023/05/30 07:45:14;;;;;;;15.75;3.53;;;16.50;91.80;;;;;;5031803;28;20021;-69
2023/05/30 07:47:40;;;;;;;15.70;4.40;;;16.80;91.30;;;;;;5030444;28;20033;-68
2023/05/30 07:50:07;;;;;;;20.92;4.20;;;16.60;91.40;;;;;;5031578;28;20036;-68
2023/05/30 07:52:33;;;;;;;20.55;4.50;;;16.70;91.60;;;;;;5031274;28;20550;-68
2023/05/30 07:54:59;;;;;;;18.20;4.75;;;17.00;91.50;;;;;;5031315;28;20037;-68
2023/05/30 07:57:24;;;;;;;11.80;3.65;;;16.90;91.00;;;;;;5031424;28;20351;-69
2023/05/30 07:59:50;;;;;;;13.93;3.58;;;16.90;91.10;;;;;;5031760;28;20017;-70
2023/05/30 08:02:16;;;;;;;12.82;3.55;;;17.00;91.00;;;;;;5030399;28;20041;-72
2023/05/30 08:04:42;;;;;;;17.65;4.45;;;17.00;90.80;;;;;;5031102;28;20539;-68
2023/05/30 08:07:08;;;;;;;12.98;3.70;;;17.30;90.70;;;;;;5030768;28;20191;-71
2023/05/30 08:09:36;;;;;;;20.20;4.25;;;17.30;90.30;;;;;;5031087;28;20017;-70
2023/05/30 08:12:05;;;;;;;16.33;4.32;;;17.30;90.40;;;;;;5031482;28;20098;-69
2023/05/30 08:14:31;;;;;;;11.95;3.97;;;17.00;90.70;;;;;;5031273;28;20455;-69
2023/05/30 08:16:57;;;;;;;14.55;4.20;;;16.70;91.20;;;;;;5030809;28;20030;-69
2023/05/30 08:19:23;;;;;;;13.32;3.65;;;16.80;91.00;;;;;;5029933;28;20048;-69
2023/05/30 08:21:49;;;;;;;15.32;3.90;;;16.90;91.00;;;;;;5029810;28;20040;-68
2023/05/30 08:24:17;;;;;;;15.82;4.40;;;17.20;90.50;;;;;;5030129;28;20059;-70
2023/05/30 08:26:44;;;;;;;25.30;9.02;;;17.40;90.70;;;;;;5029756;28;20030;-70
2023/05/30 08:29:11;;;;;;;14.35;4.30;;;18.00;90.30;;;;;;5030144;28;20430;-71
2023/05/30 08:31:37;;;;;;;9.52;3.38;;;18.40;89.30;;;;;;5029599;28;20072;-70
2023/05/30 08:34:03;;;;;;;15.05;4.72;;;18.70;88.20;;;;;;5029631;28;20034;-71
2023/05/30 08:36:29;;;;;;;15.50;5.43;;;18.60;87.70;;;;;;5030924;28;20043;-70
2023/05/30 08:38:55;;;;;;;14.93;4.03;;;19.10;88.40;;;;;;5031185;28;20025;-70
2023/05/30 08:41:22;;;;;;;10.38;3.40;;;19.80;86.40;;;;;;5029782;28;20037;-70
2023/05/30 08:43:48;;;;;;;18.42;3.65;;;20.40;85.00;;;;;;5030581;28;20048;-70
2023/05/30 08:46:16;;;;;;;10.93;3.20;;;20.80;82.00;;;;;;5029684;28;20455;-69
2023/05/30 08:48:42;;;;;;;17.00;3.27;;;21.00;81.20;;;;;;5030376;28;20038;-70
2023/05/30 08:51:12;;;;;;;22.77;3.95;;;21.60;82.10;;;;;;5029791;28;20026;-70
2023/05/30 08:53:45;;;;;;;16.23;4.15;;;22.10;79.80;;;;;;5030397;28;20037;-69
2023/05/30 08:56:21;;;;;;;12.27;3.17;;;22.10;77.40;;;;;;5030357;28;20124;-70
2023/05/30 08:58:50;;;;;;;9.05;3.13;;;21.80;77.00;;;;;;5030446;28;20026;-72
2023/05/30 09:01:17;;;;;;;14.43;3.53;;;22.10;76.60;;;;;;5030416;28;20034;-72
2023/05/30 09:03:44;;;;;;;18.05;3.67;;;22.20;76.80;;;;;;5030221;28;20463;-71
2023/05/30 09:06:13;;;;;;;16.52;4.65;;;23.40;75.40;;;;;;5030856;28;20056;-71
2023/05/30 09:08:43;;;;;;;10.13;3.05;;;23.80;73.90;;;;;;5030091;28;20030;-72
2023/05/30 09:11:10;;;;;;;13.88;3.47;;;24.20;72.10;;;;;;5030141;28;20033;-70
2023/05/30 09:13:35;;;;;;;10.88;2.40;;;24.40;70.60;;;;;;5030250;28;20053;-71
2023/05/30 09:16:01;;;;;;;9.57;2.75;;;24.80;70.20;;;;;;5030468;28;20073;-73
2023/05/30 09:18:32;;;;;;;9.15;2.67;;;24.90;68.80;;;;;;5029940;28;20103;-72
2023/05/30 09:20:57;;;;;;;8.57;3.10;;;25.10;66.00;;;;;;5030620;28;20025;-69
2023/05/30 09:23:23;;;;;;;10.18;2.95;;;25.50;65.70;;;;;;5029817;28;20087;-69
2023/05/30 09:25:51;;;;;;;10.20;2.88;;;25.60;66.00;;;;;;5028910;28;20029;-72
2023/05/30 09:28:23;;;;;;;;;;;25.20;65.20;;;;;;5030175;28;20392;-68
2023/05/30 09:30:56;;;;;;;10.75;2.80;;;25.00;65.50;;;;;;5029924;28;20081;-70
2023/05/30 09:33:22;;;;;;;10.23;2.60;;;24.50;67.00;;;;;;5029708;28;20026;-69
2023/05/30 09:35:54;;;;;;;12.40;3.10;;;24.20;66.90;;;;;;5030862;28;20018;-71
2023/05/30 09:38:22;;;;;;;7.30;2.67;;;23.70;67.50;;;;;;5030063;28;20029;-69
2023/05/30 09:40:55;;;;;;;9.30;2.80;;;23.20;68.20;;;;;;5032188;28;20482;-68
2023/05/30 09:43:34;;;;;;;8.13;2.75;;;22.60;69.10;;;;;;5034192;28;20045;-69
2023/05/30 09:46:01;;;;;;;7.38;2.78;;;22.10;71.20;;;;;;5033237;28;20038;-68
2023/05/30 09:48:27;;;;;;;6.40;2.30;;;22.60;71.00;;;;;;5034004;28;20036;-74
2023/05/30 09:50:53;;;;;;;7.78;2.65;;;21.90;71.60;;;;;;5034300;28;20021;-69
2023/05/30 09:53:19;;;;;;;8.73;2.50;;;21.80;71.70;;;;;;5032789;28;20207;-69
2023/05/30 09:55:44;;;;;;;7.30;2.35;;;22.20;70.90;;;;;;5033713;28;20080;-69
2023/05/30 09:58:20;;;;;;;5.50;2.20;;;22.00;71.60;;;;;;5033919;28;20365;-69
2023/05/30 10:00:54;;;;;;;6.18;2.70;;;22.20;72.10;;;;;;5034007;28;20482;-70
2023/05/30 10:03:21;;;;;;;8.90;2.50;;;22.30;72.50;;;;;;5033640;28;20032;-68
2023/05/30 10:05:47;;;;;;;13.65;2.90;;;22.20;73.60;;;;;;5032947;28;20030;-71
2023/05/30 10:08:14;;;;;;;6.53;2.03;;;22.10;73.60;;;;;;5033519;28;20040;-71
2023/05/30 10:10:43;;;;;;;8.30;2.17;;;22.40;73.50;;;;;;5033493;28;20540;-68
2023/05/30 10:13:08;;;;;;;10.95;2.55;;;22.50;73.30;;;;;;5033427;28;20033;-68
2023/05/30 10:15:35;;;;;;;7.40;1.90;;;22.10;73.80;;;;;;5033443;28;20044;-68
2023/05/30 10:18:08;;;;;;;8.40;2.55;;;21.60;73.80;;;;;;5034098;28;20090;-67
2023/05/30 10:20:37;;;;;;;7.45;2.30;;;21.60;75.00;;;;;;5033538;28;20033;-66
2023/05/30 10:23:07;;;;;;;6.13;1.77;;;21.60;75.10;;;;;;5033131;28;20479;-66
2023/05/30 10:25:36;;;;;;;7.38;1.77;;;21.80;75.10;;;;;;5032119;28;20033;-67
2023/05/30 10:28:04;;;;;;;8.27;1.77;;;21.60;74.60;;;;;;5033459;28;20037;-68
2023/05/30 10:30:32;;;;;;;8.10;2.08;;;21.40;75.30;;;;;;5032959;28;20042;-68
2023/05/30 10:33:09;;;;;;;4.25;1.58;;;20.90;76.50;;;;;;5033953;28;20025;-67
2023/05/30 10:35:35;;;;;;;8.02;2.40;;;20.70;77.30;;;;;;5033145;28;20025;-67
2023/05/30 10:38:04;;;;;;;9.63;2.05;;;20.90;78.10;;;;;;5032953;28;20029;-67
2023/05/30 10:40:48;;;;;;;7.35;2.28;;;20.70;77.90;;;;;;5032748;28;20041;-68
2023/05/30 10:43:28;;;;;;;4.93;1.60;;;21.00;78.00;;;;;;5032805;28;20464;-67
2023/05/30 10:46:23;;;;;;;7.13;1.83;;;21.30;77.40;;;;;;5033497;28;20036;-69
2023/05/30 10:49:01;;;;;;;6.15;1.98;;;21.20;77.50;;;;;;5032785;28;20029;-66
2023/05/30 10:51:26;;;;;;;7.07;2.15;;;21.00;77.90;;;;;;5032264;28;20025;-68
2023/05/30 10:53:52;;;;;;;8.13;2.47;;;20.90;78.80;;;;;;5033184;28;20025;-68
2023/05/30 10:56:40;;;;;;;6.05;2.70;;;20.90;78.60;;;;;;5032691;28;20467;-70
2023/05/30 10:59:18;;;;;;;5.13;2.00;;;21.10;78.20;;;;;;5032475;28;20402;-69
2023/05/30 11:02:04;;;;;;;22.38;5.10;;;20.90;77.80;;;;;;5032672;28;20450;-71
2023/05/30 11:04:43;;;;;;;15.00;2.92;;;21.10;77.70;;;;;;5032486;28;20064;-70
2023/05/30 11:07:11;;;;;;;21.67;4.43;;;21.00;78.70;;;;;;5032311;28;20463;-70
2023/05/30 11:10:00;;;;;;;5.45;2.15;;;21.20;78.10;;;;;;5032939;28;20025;-70
2023/05/30 11:12:26;;;;;;;8.75;2.47;;;20.90;77.70;;;;;;5032526;28;20155;-69
2023/05/30 11:14:59;;;;;;;7.50;2.30;;;20.70;78.30;;;;;;5032886;28;20104;-69
2023/05/30 11:17:36;;;;;;;6.15;2.30;;;20.90;78.50;;;;;;5032162;28;20360;-71
2023/05/30 11:20:07;;;;;;;4.60;1.90;;;20.60;78.40;;;;;;5032009;28;20029;-70
2023/05/30 11:22:33;;;;;;;13.32;2.63;;;20.30;79.40;;;;;;5032259;28;20034;-69
2023/05/30 11:25:23;;;;;;;7.47;2.08;;;20.80;78.80;;;;;;5032017;28;20418;-70
2023/05/30 11:28:03;;;;;;;10.45;2.47;;;21.10;78.20;;;;;;5032075;28;20100;-68
2023/05/30 11:30:39;;;;;;;11.35;2.60;;;21.30;77.50;;;;;;5031811;28;20045;-69
2023/05/30 11:33:12;;;;;;;5.20;2.15;;;21.40;77.40;;;;;;5032258;28;20034;-68
2023/05/30 11:35:38;;;;;;;5.20;2.10;;;21.30;77.90;;;;;;5031928;28;20190;-68
2023/05/30 11:38:06;;;;;;;4.57;2.17;;;21.10;77.70;;;;;;5032014;28;20120;-71
2023/05/30 11:40:31;;;;;;;6.60;2.33;;;21.00;78.20;;;;;;5032161;28;20118;-72
2023/05/30 11:42:57;;;;;;;6.00;2.20;;;20.70;78.60;;;;;;5031959;28;20546;-68
2023/05/30 11:45:30;;;;;;;4.57;2.22;;;20.60;79.30;;;;;;5031884;28;20526;-71
2023/05/30 11:48:07;;;;;;;3.72;2.05;;;21.00;79.00;;;;;;5031797;28;20522;-77
2023/05/30 11:50:42;;;;;;;8.63;3.38;;;21.00;78.40;;;;;;5033049;28;20030;-71
2023/05/30 11:53:15;;;;;;;5.05;2.70;;;20.70;78.30;;;;;;5031760;28;20631;-71
2023/05/30 11:55:48;;;;;;;6.70;2.40;;;20.60;79.20;;;;;;5033239;28;20068;-69
2023/05/30 11:58:15;;;;;;;9.52;2.90;;;21.00;79.10;;;;;;5032806;28;20160;-71
2023/05/30 12:00:41;;;;;;;4.07;2.28;;;21.20;78.70;;;;;;5032999;28;20045;-69
2023/05/30 12:03:11;;;;;;;6.20;2.63;;;21.30;78.00;;;;;;5032242;28;20029;-69
2023/05/30 12:05:38;;;;;;;9.35;2.90;;;21.40;77.80;;;;;;5033051;28;20068;-69
2023/05/30 12:08:05;;;;;;;8.48;2.80;;;21.30;78.00;;;;;;5032079;28;20029;-70
2023/05/30 12:10:31;;;;;;;7.13;2.60;;;21.10;78.10;;;;;;5031442;28;20060;-71
2023/05/30 12:12:58;;;;;;;5.90;2.20;;;20.80;78.40;;;;;;5032554;28;20471;-70
2023/05/30 12:15:24;;;;;;;8.75;2.90;;;20.90;78.80;;;;;;5031438;28;20498;-68
2023/05/30 12:17:51;;;;;;;8.52;3.15;;;21.00;78.90;;;;;;5032494;28;20026;-68
2023/05/30 12:20:17;;;;;;;8.38;3.55;;;21.00;79.00;;;;;;5032156;28;20053;-71
2023/05/30 12:22:44;;;;;;;8.00;3.45;;;20.70;79.70;;;;;;5032210;28;20542;-70
2023/05/30 12:25:11;;;;;;;5.63;2.75;;;20.60;79.60;;;;;;5030924;28;20034;-69
2023/05/30 12:27:43;;;;;;;7.28;3.00;;;20.50;79.60;;;;;;5030961;28;20363;-71
2023/05/30 12:30:13;;;;;;;11.30;3.13;;;20.80;79.70;;;;;;5032285;28;20038;-69
2023/05/30 12:32:39;;;;;;;5.90;2.65;;;20.80;79.40;;;;;;5031847;28;20026;-70
2023/05/30 12:35:05;;;;;;;11.05;2.70;;;20.70;79.50;;;;;;5032206;28;20025;-70
2023/05/30 12:37:31;;;;;;;11.95;3.20;;;20.80;79.90;;;;;;5032280;28;20041;-69
2023/05/30 12:39:58;;;;;;;6.63;2.83;;;21.00;79.50;;;;;;5032052;28;20407;-70
2023/05/30 12:42:25;;;;;;;12.15;3.28;;;20.80;80.10;;;;;;5031933;28;20034;-70